sensor_id;sensor_type;location;lat;lon;timestamp;pressure;altitude;pressure_sealevel;temperature;humidity
51452;BME280;37521;52.020;-1.740;2023-04-05T00:01:13;100622.81;;;4.21;100.00
51452;BME280;37521;52.020;-1.740;2023-04-05T00:03:41;100614.13;;;4.22;100.00
51452;BME280;37521;52.020;-1.740;2023-04-05T00:06:10;100614.06;;;4.28;100.00
51452;BME280;37521;52.020;-1.740;2023-04-05T00:08:39;100624.47;;;4.31;100.00
51452;BME280;37521;52.020;-1.740;2023-04-05T00:11:07;100611.44;;;4.30;100.00
51452;BME280;37521;52.020;-1.740;2023-04-05T00:13:36;100614.06;;;4.28;100.00
51452;BME280;37521;52.020;-1.740;2023-04-05T00:16:06;100612.28;;;4.30;100.00
51452;BME280;37521;52.020;-1.740;2023-04-05T00:18:34;100607.06;;;4.30;100.00
51452;BME280;37521;52.020;-1.740;2023-04-05T00:21:04;100610.56;;;4.29;100.00
51452;BME280;37521;52.020;-1.740;2023-04-05T00:23:33;100605.34;;;4.29;100.00
51452;BME280;37521;52.020;-1.740;2023-04-05T00:26:04;100606.25;;;4.25;100.00
51452;BME280;37521;52.020;-1.740;2023-04-05T00:28:33;100600.19;;;4.23;100.00
51452;BME280;37521;52.020;-1.740;2023-04-05T00:31:02;100592.34;;;4.20;100.00
51452;BME280;37521;52.020;-1.740;2023-04-05T00:33:32;100597.59;;;4.19;100.00
51452;BME280;37521;52.020;-1.740;2023-04-05T00:36:09;100587.19;;;4.16;100.00
51452;BME280;37521;52.020;-1.740;2023-04-05T00:38:39;100601.16;;;4.15;100.00
51452;BME280;37521;52.020;-1.740;2023-04-05T00:41:07;100602.03;;;4.12;100.00
51452;BME280;37521;52.020;-1.740;2023-04-05T00:43:36;100589.03;;;4.04;100.00
51452;BME280;37521;52.020;-1.740;2023-04-05T00:46:05;100593.53;;;3.95;100.00
51452;BME280;37521;52.020;-1.740;2023-04-05T00:48:37;100597.09;;;3.85;100.00
51452;BME280;37521;52.020;-1.740;2023-04-05T00:51:06;100592.78;;;3.79;100.00
51452;BME280;37521;52.020;-1.740;2023-04-05T00:53:38;100588.41;;;3.82;100.00
51452;BME280;37521;52.020;-1.740;2023-04-05T00:56:07;100585.69;;;3.92;100.00
51452;BME280;37521;52.020;-1.740;2023-04-05T00:58:39;100588.19;;;4.04;100.00
51452;BME280;37521;52.020;-1.740;2023-04-05T01:01:12;100586.34;;;4.15;100.00
51452;BME280;37521;52.020;-1.740;2023-04-05T01:03:49;100581.00;;;4.24;100.00
51452;BME280;37521;52.020;-1.740;2023-04-05T01:06:30;100578.34;;;4.26;100.00
51452;BME280;37521;52.020;-1.740;2023-04-05T01:09:10;100580.94;;;4.27;100.00
51452;BME280;37521;52.020;-1.740;2023-04-05T01:11:41;100574.84;;;4.30;100.00
51452;BME280;37521;52.020;-1.740;2023-04-05T01:14:12;100575.72;;;4.27;100.00
51452;BME280;37521;52.020;-1.740;2023-04-05T01:16:40;100579.22;;;4.26;100.00
51452;BME280;37521;52.020;-1.740;2023-04-05T01:19:09;100576.59;;;4.29;100.00
51452;BME280;37521;52.020;-1.740;2023-04-05T01:24:50;100565.25;;;4.30;100.00
51452;BME280;37521;52.020;-1.740;2023-04-05T01:27:45;100561.81;;;4.25;100.00
51452;BME280;37521;52.020;-1.740;2023-04-05T01:30:20;100556.66;;;4.19;100.00
51452;BME280;37521;52.020;-1.740;2023-04-05T01:32:54;100559.28;;;4.18;100.00
51452;BME280;37521;52.020;-1.740;2023-04-05T01:35:33;100558.38;;;4.20;100.00
51452;BME280;37521;52.020;-1.740;2023-04-05T01:38:06;100554.00;;;4.24;100.00
51452;BME280;37521;52.020;-1.740;2023-04-05T01:40:39;100543.50;;;4.27;100.00
51452;BME280;37521;52.020;-1.740;2023-04-05T01:43:12;100543.50;;;4.27;100.00
51452;BME280;37521;52.020;-1.740;2023-04-05T01:45:42;100539.97;;;4.28;100.00
51452;BME280;37521;52.020;-1.740;2023-04-05T01:48:11;100539.16;;;4.26;100.00
51452;BME280;37521;52.020;-1.740;2023-04-05T01:50:39;100547.00;;;4.24;100.00
51452;BME280;37521;52.020;-1.740;2023-04-05T01:53:08;100546.13;;;4.25;100.00
51452;BME280;37521;52.020;-1.740;2023-04-05T01:55:36;100537.41;;;4.26;100.00
51452;BME280;37521;52.020;-1.740;2023-04-05T01:58:05;100539.97;;;4.28;100.00
51452;BME280;37521;52.020;-1.740;2023-04-05T02:00:33;100536.53;;;4.26;100.00
51452;BME280;37521;52.020;-1.740;2023-04-05T02:03:03;100535.72;;;4.22;100.00
51452;BME280;37521;52.020;-1.740;2023-04-05T02:05:32;100524.44;;;4.19;100.00
51452;BME280;37521;52.020;-1.740;2023-04-05T02:08:01;100523.63;;;4.15;100.00
51452;BME280;37521;52.020;-1.740;2023-04-05T02:10:30;100521.91;;;4.11;100.00
51452;BME280;37521;52.020;-1.740;2023-04-05T02:12:58;100510.59;;;4.07;100.00
51452;BME280;37521;52.020;-1.740;2023-04-05T02:15:26;100512.44;;;4.01;100.00
51452;BME280;37521;52.020;-1.740;2023-04-05T02:17:56;100507.31;;;3.95;100.00
51452;BME280;37521;52.020;-1.740;2023-04-05T02:20:29;100511.72;;;3.90;100.00
51452;BME280;37521;52.020;-1.740;2023-04-05T02:22:59;100506.53;;;3.83;100.00
51452;BME280;37521;52.020;-1.740;2023-04-05T02:25:28;100512.66;;;3.81;100.00
51452;BME280;37521;52.020;-1.740;2023-04-05T02:27:56;100503.94;;;3.80;100.00
51452;BME280;37521;52.020;-1.740;2023-04-05T02:30:24;100500.44;;;3.85;100.00
51452;BME280;37521;52.020;-1.740;2023-04-05T02:32:54;100493.44;;;3.87;100.00
51452;BME280;37521;52.020;-1.740;2023-04-05T02:35:23;100489.94;;;3.88;100.00
51452;BME280;37521;52.020;-1.740;2023-04-05T02:37:52;100500.38;;;3.88;100.00
51452;BME280;37521;52.020;-1.740;2023-04-05T02:40:22;100494.38;;;3.82;100.00
51452;BME280;37521;52.020;-1.740;2023-04-05T02:42:51;100492.66;;;3.81;100.00
51452;BME280;37521;52.020;-1.740;2023-04-05T02:45:19;100496.16;;;3.77;100.00
51452;BME280;37521;52.020;-1.740;2023-04-05T02:47:48;100489.22;;;3.73;100.00
51452;BME280;37521;52.020;-1.740;2023-04-05T02:50:16;100484.06;;;3.67;100.00
51452;BME280;37521;52.020;-1.740;2023-04-05T02:52:46;100487.63;;;3.60;100.00
51452;BME280;37521;52.020;-1.740;2023-04-05T02:55:17;100485.13;;;3.51;100.00
51452;BME280;37521;52.020;-1.740;2023-04-05T02:57:45;100473.91;;;3.43;100.00
51452;BME280;37521;52.020;-1.740;2023-04-05T03:00:32;100480.00;;;3.42;100.00
51452;BME280;37521;52.020;-1.740;2023-04-05T03:03:01;100497.41;;;3.41;100.00
51452;BME280;37521;52.020;-1.740;2023-04-05T03:05:31;100490.44;;;3.39;100.00
51452;BME280;37521;52.020;-1.740;2023-04-05T03:07:59;100487.84;;;3.39;100.00
51452;BME280;37521;52.020;-1.740;2023-04-05T03:10:34;100490.47;;;3.34;100.00
51452;BME280;37521;52.020;-1.740;2023-04-05T03:13:13;100491.38;;;3.33;100.00
51452;BME280;37521;52.020;-1.740;2023-04-05T03:15:42;100487.06;;;3.29;100.00
51452;BME280;37521;52.020;-1.740;2023-04-05T03:18:14;100481.03;;;3.24;100.00
51452;BME280;37521;52.020;-1.740;2023-04-05T03:20:44;100487.13;;;3.20;100.00
51452;BME280;37521;52.020;-1.740;2023-04-05T03:23:18;100489.75;;;3.21;100.00
51452;BME280;37521;52.020;-1.740;2023-04-05T03:25:54;100485.41;;;3.22;100.00
51452;BME280;37521;52.020;-1.740;2023-04-05T03:28:27;100474.97;;;3.19;100.00
51452;BME280;37521;52.020;-1.740;2023-04-05T03:31:00;100481.09;;;3.16;100.00
51452;BME280;37521;52.020;-1.740;2023-04-05T03:33:29;100483.72;;;3.13;100.00
51452;BME280;37521;52.020;-1.740;2023-04-05T03:35:58;100472.47;;;3.08;100.00
51452;BME280;37521;52.020;-1.740;2023-04-05T03:38:31;100475.97;;;3.04;100.00
51452;BME280;37521;52.020;-1.740;2023-04-05T03:41:19;100470.81;;;2.98;100.00
51452;BME280;37521;52.020;-1.740;2023-04-05T03:43:47;100472.56;;;2.93;100.00
51452;BME280;37521;52.020;-1.740;2023-04-05T03:46:19;100474.38;;;2.88;100.00
51452;BME280;37521;52.020;-1.740;2023-04-05T03:48:47;100470.06;;;2.82;100.00
51452;BME280;37521;52.020;-1.740;2023-04-05T03:51:15;100470.97;;;2.77;100.00
51452;BME280;37521;52.020;-1.740;2023-04-05T03:53:49;100466.66;;;2.71;100.00
51452;BME280;37521;52.020;-1.740;2023-04-05T03:56:19;100464.97;;;2.68;100.00
51452;BME280;37521;52.020;-1.740;2023-04-05T03:58:48;100455.41;;;2.64;100.00
51452;BME280;37521;52.020;-1.740;2023-04-05T04:01:22;100457.16;;;2.64;100.00
51452;BME280;37521;52.020;-1.740;2023-04-05T04:03:50;100452.84;;;2.61;100.00
51452;BME280;37521;52.020;-1.740;2023-04-05T04:06:18;100440.66;;;2.60;100.00
51452;BME280;37521;52.020;-1.740;2023-04-05T04:08:47;100440.66;;;2.59;100.00
51452;BME280;37521;52.020;-1.740;2023-04-05T04:11:15;100436.34;;;2.56;100.00
51452;BME280;37521;52.020;-1.740;2023-04-05T04:13:45;100432.91;;;2.51;100.00
51452;BME280;37521;52.020;-1.740;2023-04-05T04:16:20;100439.91;;;2.48;100.00
51452;BME280;37521;52.020;-1.740;2023-04-05T04:19:07;100432.94;;;2.45;100.00
51452;BME280;37521;52.020;-1.740;2023-04-05T04:21:55;100432.94;;;2.45;100.00
51452;BME280;37521;52.020;-1.740;2023-04-05T04:24:43;100432.06;;;2.46;100.00
51452;BME280;37521;52.020;-1.740;2023-04-05T04:27:33;100432.94;;;2.46;100.00
51452;BME280;37521;52.020;-1.740;2023-04-05T04:30:05;100430.31;;;2.46;100.00
51452;BME280;37521;52.020;-1.740;2023-04-05T04:32:54;100421.66;;;2.48;100.00
51452;BME280;37521;52.020;-1.740;2023-04-05T04:35:25;100416.44;;;2.48;100.00
51452;BME280;37521;52.020;-1.740;2023-04-05T04:38:00;100427.75;;;2.43;100.00
51452;BME280;37521;52.020;-1.740;2023-04-05T04:40:50;100421.66;;;2.44;100.00
51452;BME280;37521;52.020;-1.740;2023-04-05T04:43:33;100421.66;;;2.48;100.00
51452;BME280;37521;52.020;-1.740;2023-04-05T04:46:29;100409.50;;;2.45;100.00
51452;BME280;37521;52.020;-1.740;2023-04-05T04:49:06;100411.22;;;2.46;100.00
51452;BME280;37521;52.020;-1.740;2023-04-05T04:51:36;100405.16;;;2.44;100.00
51452;BME280;37521;52.020;-1.740;2023-04-05T04:54:05;100408.63;;;2.44;100.00
51452;BME280;37521;52.020;-1.740;2023-04-05T04:56:34;100406.03;;;2.43;100.00
51452;BME280;37521;52.020;-1.740;2023-04-05T04:59:02;100412.97;;;2.44;100.00
51452;BME280;37521;52.020;-1.740;2023-04-05T05:01:31;100416.44;;;2.49;100.00
51452;BME280;37521;52.020;-1.740;2023-04-05T05:04:02;100419.03;;;2.49;100.00
51452;BME280;37521;52.020;-1.740;2023-04-05T05:06:34;100423.38;;;2.45;100.00
51452;BME280;37521;52.020;-1.740;2023-04-05T05:09:03;100421.69;;;2.43;100.00
51452;BME280;37521;52.020;-1.740;2023-04-05T05:11:36;100422.56;;;2.39;100.00
51452;BME280;37521;52.020;-1.740;2023-04-05T05:14:07;100423.47;;;2.36;100.00
51452;BME280;37521;52.020;-1.740;2023-04-05T05:16:37;100420.00;;;2.36;100.00
51452;BME280;37521;52.020;-1.740;2023-04-05T05:19:05;100417.38;;;2.33;100.00
51452;BME280;37521;52.020;-1.740;2023-04-05T05:21:44;100416.53;;;2.32;100.00
51452;BME280;37521;52.020;-1.740;2023-04-05T05:24:12;100421.78;;;2.29;100.00
51452;BME280;37521;52.020;-1.740;2023-04-05T05:26:41;100421.78;;;2.26;100.00
51452;BME280;37521;52.020;-1.740;2023-04-05T05:29:09;100429.56;;;2.31;100.00
51452;BME280;37521;52.020;-1.740;2023-04-05T05:31:42;100426.94;;;2.37;100.00
51452;BME280;37521;52.020;-1.740;2023-04-05T05:34:10;100427.75;;;2.40;100.00
51452;BME280;37521;52.020;-1.740;2023-04-05T05:36:42;100432.94;;;2.45;100.00
51452;BME280;37521;52.020;-1.740;2023-04-05T05:39:10;100431.19;;;2.47;100.00
51452;BME280;37521;52.020;-1.740;2023-04-05T05:41:38;100426.00;;;2.49;100.00
51452;BME280;37521;52.020;-1.740;2023-04-05T05:44:06;100415.56;;;2.47;100.00
51452;BME280;37521;52.020;-1.740;2023-04-05T05:46:35;100422.50;;;2.46;100.00
51452;BME280;37521;52.020;-1.740;2023-04-05T05:49:04;100419.91;;;2.50;100.00
51452;BME280;37521;52.020;-1.740;2023-04-05T05:51:32;100423.31;;;2.53;100.00
51452;BME280;37521;52.020;-1.740;2023-04-05T05:54:02;100425.94;;;2.56;100.00
51452;BME280;37521;52.020;-1.740;2023-04-05T05:56:30;100432.00;;;2.58;100.00
51452;BME280;37521;52.020;-1.740;2023-04-05T05:58:58;100425.00;;;2.60;100.00
51452;BME280;37521;52.020;-1.740;2023-04-05T06:01:27;100422.44;;;2.59;100.00
51452;BME280;37521;52.020;-1.740;2023-04-05T06:03:55;100426.78;;;2.61;100.00
51452;BME280;37521;52.020;-1.740;2023-04-05T06:06:25;100417.19;;;2.63;100.00
51452;BME280;37521;52.020;-1.740;2023-04-05T06:08:55;100417.16;;;2.68;100.00
51452;BME280;37521;52.020;-1.740;2023-04-05T06:11:24;100410.16;;;2.71;100.00
51452;BME280;37521;52.020;-1.740;2023-04-05T06:13:52;100413.59;;;2.77;100.00
51452;BME280;37521;52.020;-1.740;2023-04-05T06:16:21;100405.75;;;2.80;100.00
51452;BME280;37521;52.020;-1.740;2023-04-05T06:18:50;100399.63;;;2.84;100.00
51452;BME280;37521;52.020;-1.740;2023-04-05T06:21:18;100403.09;;;2.86;100.00
51452;BME280;37521;52.020;-1.740;2023-04-05T06:23:47;100403.09;;;2.89;100.00
51452;BME280;37521;52.020;-1.740;2023-04-05T06:26:16;100400.44;;;2.92;100.00
51452;BME280;37521;52.020;-1.740;2023-04-05T06:28:46;100396.03;;;2.97;100.00
51452;BME280;37521;52.020;-1.740;2023-04-05T06:31:15;100391.66;;;3.02;100.00
51452;BME280;37521;52.020;-1.740;2023-04-05T06:33:43;100393.34;;;3.08;100.00
51452;BME280;37521;52.020;-1.740;2023-04-05T06:36:12;100386.31;;;3.13;100.00
51452;BME280;37521;52.020;-1.740;2023-04-05T06:38:40;100388.88;;;3.17;100.00
51452;BME280;37521;52.020;-1.740;2023-04-05T06:41:09;100394.06;;;3.23;100.00
51452;BME280;37521;52.020;-1.740;2023-04-05T06:43:38;100384.44;;;3.25;100.00
51452;BME280;37521;52.020;-1.740;2023-04-05T06:46:06;100381.81;;;3.28;100.00
51452;BME280;37521;52.020;-1.740;2023-04-05T06:48:37;100384.38;;;3.35;100.00
51452;BME280;37521;52.020;-1.740;2023-04-05T06:51:05;100386.03;;;3.39;100.00
51452;BME280;37521;52.020;-1.740;2023-04-05T06:53:33;100383.41;;;3.42;100.00
51452;BME280;37521;52.020;-1.740;2023-04-05T06:56:02;100379.03;;;3.44;100.00
51452;BME280;37521;52.020;-1.740;2023-04-05T06:58:32;100383.38;;;3.45;100.00
51452;BME280;37521;52.020;-1.740;2023-04-05T07:01:00;100385.16;;;3.43;100.00
51452;BME280;37521;52.020;-1.740;2023-04-05T07:03:28;100384.22;;;3.45;100.00
51452;BME280;37521;52.020;-1.740;2023-04-05T07:05:57;100384.19;;;3.50;100.00
51452;BME280;37521;52.020;-1.740;2023-04-05T07:08:27;100385.00;;;3.55;100.00
51452;BME280;37521;52.020;-1.740;2023-04-05T07:10:55;100390.19;;;3.58;100.00
51452;BME280;37521;52.020;-1.740;2023-04-05T07:13:24;100391.84;;;3.65;100.00
51452;BME280;37521;52.020;-1.740;2023-04-05T07:15:58;100381.31;;;3.71;100.00
51452;BME280;37521;52.020;-1.740;2023-04-05T07:18:27;100388.25;;;3.72;100.00
51452;BME280;37521;52.020;-1.740;2023-04-05T07:20:57;100384.75;;;3.73;100.00
51452;BME280;37521;52.020;-1.740;2023-04-05T07:23:27;100380.44;;;3.72;100.00
51452;BME280;37521;52.020;-1.740;2023-04-05T07:25:59;100385.63;;;3.75;100.00
51452;BME280;37521;52.020;-1.740;2023-04-05T07:28:30;100387.28;;;3.81;100.00
51452;BME280;37521;52.020;-1.740;2023-04-05T07:31:04;100380.34;;;3.78;100.00
51452;BME280;37521;52.020;-1.740;2023-04-05T07:33:33;100388.19;;;3.78;100.00
51452;BME280;37521;52.020;-1.740;2023-04-05T07:36:01;100382.97;;;3.78;100.00
51452;BME280;37521;52.020;-1.740;2023-04-05T07:38:30;100388.16;;;3.81;100.00
51452;BME280;37521;52.020;-1.740;2023-04-05T07:40:58;100383.75;;;3.85;100.00
51452;BME280;37521;52.020;-1.740;2023-04-05T07:43:26;100389.75;;;3.92;100.00
51452;BME280;37521;52.020;-1.740;2023-04-05T07:46:00;100390.63;;;3.92;100.00
51452;BME280;37521;52.020;-1.740;2023-04-05T07:48:31;100381.81;;;3.99;100.00
51452;BME280;37521;52.020;-1.740;2023-04-05T07:51:03;100386.16;;;4.02;100.00
51452;BME280;37521;52.020;-1.740;2023-04-05T07:53:32;100389.59;;;4.04;100.00
51452;BME280;37521;52.020;-1.740;2023-04-05T07:56:02;100381.69;;;4.10;100.00
51452;BME280;37521;52.020;-1.740;2023-04-05T07:58:31;100375.41;;;4.23;100.00
51452;BME280;37521;52.020;-1.740;2023-04-05T08:00:59;100382.25;;;4.30;100.00
51452;BME280;37521;52.020;-1.740;2023-04-05T08:03:28;100373.59;;;4.28;100.00
51452;BME280;37521;52.020;-1.740;2023-04-05T08:05:58;100370.94;;;4.30;100.00
51452;BME280;37521;52.020;-1.740;2023-04-05T08:08:26;100379.56;;;4.36;100.00
51452;BME280;37521;52.020;-1.740;2023-04-05T08:10:54;100368.13;;;4.44;100.00
51452;BME280;37521;52.020;-1.740;2023-04-05T08:13:23;100366.28;;;4.50;100.00
51452;BME280;37521;52.020;-1.740;2023-04-05T08:15:54;100365.22;;;4.62;100.00
51452;BME280;37521;52.020;-1.740;2023-04-05T08:18:22;100372.84;;;4.74;100.00
51452;BME280;37521;52.020;-1.740;2023-04-05T08:20:52;100367.41;;;4.86;100.00
51452;BME280;37521;52.020;-1.740;2023-04-05T08:23:22;100355.00;;;4.98;100.00
51452;BME280;37521;52.020;-1.740;2023-04-05T08:25:50;100364.41;;;5.09;100.00
51452;BME280;37521;52.020;-1.740;2023-04-05T08:28:19;100364.19;;;5.22;100.00
51452;BME280;37521;52.020;-1.740;2023-04-05T08:30:47;100351.84;;;5.27;100.00
51452;BME280;37521;52.020;-1.740;2023-04-05T08:33:15;100354.31;;;5.34;100.00
51452;BME280;37521;52.020;-1.740;2023-04-05T08:35:43;100360.31;;;5.39;100.00
51452;BME280;37521;52.020;-1.740;2023-04-05T08:38:12;100355.03;;;5.41;100.00
51452;BME280;37521;52.020;-1.740;2023-04-05T08:40:43;100359.31;;;5.46;100.00
51452;BME280;37521;52.020;-1.740;2023-04-05T08:43:17;100366.16;;;5.54;100.00
51452;BME280;37521;52.020;-1.740;2023-04-05T08:45:50;100355.50;;;5.61;100.00
51452;BME280;37521;52.020;-1.740;2023-04-05T08:48:19;100360.69;;;5.64;100.00
51452;BME280;37521;52.020;-1.740;2023-04-05T08:50:50;100364.19;;;5.65;100.00
51452;BME280;37521;52.020;-1.740;2023-04-05T08:53:18;100360.78;;;5.60;100.00
51452;BME280;37521;52.020;-1.740;2023-04-05T08:55:50;100359.03;;;5.62;100.00
51452;BME280;37521;52.020;-1.740;2023-04-05T08:58:20;100359.69;;;5.71;100.00
51452;BME280;37521;52.020;-1.740;2023-04-05T09:00:49;100354.34;;;5.76;100.00
51452;BME280;37521;52.020;-1.740;2023-04-05T09:03:21;100344.63;;;5.81;100.00
51452;BME280;37521;52.020;-1.740;2023-04-05T09:05:50;100342.88;;;5.80;100.00
51452;BME280;37521;52.020;-1.740;2023-04-05T09:08:19;100353.25;;;5.86;100.00
51452;BME280;37521;52.020;-1.740;2023-04-05T09:10:50;100343.56;;;5.90;100.00
51452;BME280;37521;52.020;-1.740;2023-04-05T09:13:18;100345.25;;;5.95;100.00
51452;BME280;37521;52.020;-1.740;2023-04-05T09:15:47;100348.38;;;6.11;100.00
51452;BME280;37521;52.020;-1.740;2023-04-05T09:18:15;100342.03;;;6.20;100.00
51452;BME280;37521;52.020;-1.740;2023-04-05T09:20:56;100354.09;;;6.27;100.00
51452;BME280;37521;52.020;-1.740;2023-04-05T09:23:28;100341.53;;;6.41;100.00
51452;BME280;37521;52.020;-1.740;2023-04-05T09:25:58;100346.44;;;6.57;100.00
51452;BME280;37521;52.020;-1.740;2023-04-05T09:28:45;100339.22;;;6.65;100.00
51452;BME280;37521;52.020;-1.740;2023-04-05T09:31:32;100342.31;;;6.80;100.00
51452;BME280;37521;52.020;-1.740;2023-04-05T09:34:06;100336.63;;;6.97;100.00
51452;BME280;37521;52.020;-1.740;2023-04-05T09:36:34;100333.81;;;7.05;100.00
51452;BME280;37521;52.020;-1.740;2023-04-05T09:39:04;100334.56;;;7.08;100.00
51452;BME280;37521;52.020;-1.740;2023-04-05T09:41:35;100341.41;;;7.16;100.00
51452;BME280;37521;52.020;-1.740;2023-04-05T09:44:05;100343.19;;;7.14;100.00
51452;BME280;37521;52.020;-1.740;2023-04-05T09:46:34;100339.25;;;6.97;100.00
51452;BME280;37521;52.020;-1.740;2023-04-05T09:49:04;100346.28;;;6.95;100.00
51452;BME280;37521;52.020;-1.740;2023-04-05T09:51:36;100342.84;;;6.93;100.00
51452;BME280;37521;52.020;-1.740;2023-04-05T09:54:09;100344.06;;;6.80;100.00
51452;BME280;37521;52.020;-1.740;2023-04-05T09:56:40;100345.25;;;6.68;100.00
51452;BME280;37521;52.020;-1.740;2023-04-05T09:59:11;100350.47;;;6.68;100.00
51452;BME280;37521;52.020;-1.740;2023-04-05T10:01:42;100354.88;;;6.68;100.00
51452;BME280;37521;52.020;-1.740;2023-04-05T10:04:10;100349.81;;;6.60;100.00
51452;BME280;37521;52.020;-1.740;2023-04-05T10:06:40;100350.09;;;6.49;100.00
51452;BME280;37521;52.020;-1.740;2023-04-05T10:09:10;100344.91;;;6.46;100.00
51452;BME280;37521;52.020;-1.740;2023-04-05T10:11:43;100346.75;;;6.43;100.00
51452;BME280;37521;52.020;-1.740;2023-04-05T10:14:12;100346.09;;;6.33;100.00
51452;BME280;37521;52.020;-1.740;2023-04-05T10:16:46;100340.97;;;6.28;100.00
51452;BME280;37521;52.020;-1.740;2023-04-05T10:19:23;100346.19;;;6.30;100.00
51452;BME280;37521;52.020;-1.740;2023-04-05T10:21:54;100333.13;;;6.27;100.00
51452;BME280;37521;52.020;-1.740;2023-04-05T10:24:33;100337.47;;;6.30;100.00
51452;BME280;37521;52.020;-1.740;2023-04-05T10:27:11;100338.31;;;6.30;100.00
51452;BME280;37521;52.020;-1.740;2023-04-05T10:29:49;100343.38;;;6.38;100.00
51452;BME280;37521;52.020;-1.740;2023-04-05T10:32:31;100335.66;;;6.32;100.00
51452;BME280;37521;52.020;-1.740;2023-04-05T10:35:08;100334.78;;;6.31;100.00
51452;BME280;37521;52.020;-1.740;2023-04-05T10:37:46;100328.84;;;6.24;100.00
51452;BME280;37521;52.020;-1.740;2023-04-05T10:40:18;100324.41;;;6.26;100.00
51452;BME280;37521;52.020;-1.740;2023-04-05T10:42:49;100326.97;;;6.30;100.00
51452;BME280;37521;52.020;-1.740;2023-04-05T10:45:18;100331.34;;;6.29;100.00
51452;BME280;37521;52.020;-1.740;2023-04-05T10:47:53;100320.81;;;6.31;100.00
51452;BME280;37521;52.020;-1.740;2023-04-05T10:50:22;100325.06;;;6.36;100.00
51452;BME280;37521;52.020;-1.740;2023-04-05T10:52:51;100329.25;;;6.43;100.00
51452;BME280;37521;52.020;-1.740;2023-04-05T10:55:19;100334.41;;;6.46;100.00
51452;BME280;37521;52.020;-1.740;2023-04-05T10:57:50;100330.97;;;6.44;100.00
51452;BME280;37521;52.020;-1.740;2023-04-05T11:00:19;100333.38;;;6.53;100.00
51452;BME280;37521;52.020;-1.740;2023-04-05T11:02:53;100324.94;;;6.75;100.00
51452;BME280;37521;52.020;-1.740;2023-04-05T11:05:28;100327.91;;;6.95;100.00
51452;BME280;37521;52.020;-1.740;2023-04-05T11:08:00;100325.78;;;7.11;100.00
51452;BME280;37521;52.020;-1.740;2023-04-05T11:10:30;100324.06;;;7.08;100.00
51452;BME280;37521;52.020;-1.740;2023-04-05T11:13:07;100322.22;;;7.12;100.00
51452;BME280;37521;52.020;-1.740;2023-04-05T11:15:37;100321.16;;;7.19;100.00
51452;BME280;37521;52.020;-1.740;2023-04-05T11:18:08;100318.47;;;7.21;100.00
51452;BME280;37521;52.020;-1.740;2023-04-05T11:20:43;100311.44;;;7.23;100.00
51452;BME280;37521;52.020;-1.740;2023-04-05T11:23:13;100313.56;;;7.08;100.00
51452;BME280;37521;52.020;-1.740;2023-04-05T11:25:46;100314.53;;;7.06;100.00
51452;BME280;37521;52.020;-1.740;2023-04-05T11:28:24;100308.56;;;6.99;100.00
51452;BME280;37521;52.020;-1.740;2023-04-05T11:30:53;100303.59;;;6.89;100.00
51452;BME280;37521;52.020;-1.740;2023-04-05T11:33:35;100298.56;;;6.81;100.00
51452;BME280;37521;52.020;-1.740;2023-04-05T11:36:04;100308.09;;;6.85;100.00
51452;BME280;37521;52.020;-1.740;2023-04-05T11:38:32;100309.06;;;6.81;100.00
51452;BME280;37521;52.020;-1.740;2023-04-05T11:41:05;100303.19;;;6.71;100.00
51452;BME280;37521;52.020;-1.740;2023-04-05T11:43:36;100299.59;;;6.75;100.00
51452;BME280;37521;52.020;-1.740;2023-04-05T11:46:05;100286.44;;;6.77;100.00
51452;BME280;37521;52.020;-1.740;2023-04-05T11:48:33;100289.97;;;6.76;100.00
51452;BME280;37521;52.020;-1.740;2023-04-05T11:51:07;100289.78;;;6.82;100.00
51452;BME280;37521;52.020;-1.740;2023-04-05T11:53:36;100284.38;;;6.88;100.00
51452;BME280;37521;52.020;-1.740;2023-04-05T11:56:08;100279.78;;;6.96;100.00
51452;BME280;37521;52.020;-1.740;2023-04-05T11:58:40;100280.50;;;7.01;100.00
51452;BME280;37521;52.020;-1.740;2023-04-05T12:01:08;100276.16;;;7.00;100.00
51452;BME280;37521;52.020;-1.740;2023-04-05T12:03:36;100275.25;;;7.01;100.00
51452;BME280;37521;52.020;-1.740;2023-04-05T12:06:05;100270.16;;;6.95;100.00
51452;BME280;37521;52.020;-1.740;2023-04-05T12:08:37;100261.41;;;6.96;100.00
51452;BME280;37521;52.020;-1.740;2023-04-05T12:11:07;100267.22;;;7.07;100.00
51452;BME280;37521;52.020;-1.740;2023-04-05T12:13:37;100259.81;;;7.22;100.00
51452;BME280;37521;52.020;-1.740;2023-04-05T12:16:08;100255.84;;;7.38;100.00
51452;BME280;37521;52.020;-1.740;2023-04-05T12:18:37;100252.19;;;7.44;100.00
51452;BME280;37521;52.020;-1.740;2023-04-05T12:21:06;100248.28;;;7.57;100.00
51452;BME280;37521;52.020;-1.740;2023-04-05T12:23:36;100239.88;;;7.74;100.00
51452;BME280;37521;52.020;-1.740;2023-04-05T12:26:05;100240.22;;;7.91;100.00
51452;BME280;37521;52.020;-1.740;2023-04-05T12:28:53;100241.41;;;7.81;100.00
51452;BME280;37521;52.020;-1.740;2023-04-05T12:31:36;100238.94;;;7.75;100.00
51452;BME280;37521;52.020;-1.740;2023-04-05T12:34:05;100251.53;;;7.65;100.00
51452;BME280;37521;52.020;-1.740;2023-04-05T12:36:34;100242.25;;;7.53;100.00
51452;BME280;37521;52.020;-1.740;2023-04-05T12:39:05;100238.22;;;7.42;100.00
51452;BME280;37521;52.020;-1.740;2023-04-05T12:41:35;100247.06;;;7.39;100.00
51452;BME280;37521;52.020;-1.740;2023-04-05T12:44:05;100234.69;;;7.43;100.00
51452;BME280;37521;52.020;-1.740;2023-04-05T12:46:40;100233.63;;;7.50;100.00
51452;BME280;37521;52.020;-1.740;2023-04-05T12:49:10;100237.16;;;7.47;100.00
51452;BME280;37521;52.020;-1.740;2023-04-05T12:51:40;100226.59;;;7.49;100.00
51452;BME280;37521;52.020;-1.740;2023-04-05T12:54:11;100223.59;;;7.62;100.00
51452;BME280;37521;52.020;-1.740;2023-04-05T12:56:40;100224.03;;;7.77;100.00
51452;BME280;37521;52.020;-1.740;2023-04-05T12:59:09;100228.38;;;7.78;100.00
51452;BME280;37521;52.020;-1.740;2023-04-05T13:01:39;100220.53;;;7.76;100.00
51452;BME280;37521;52.020;-1.740;2023-04-05T13:04:08;100223.91;;;7.80;100.00